Portada
METAR-TAF:

METAR-TAF

Aeroports :

Ağrı, Turquia

latitud: 39-39-16N, longitud: 43-01-38E, altitud: 1665 m

Observació

L'informe es va fer fa 38 minuts, a les 13:50 UTC
Vent 14 kt del Nord/Nord-Est
Temperatura 32°C
Humitat 32%
Pressió 1016 hPa
Visibilitat 10 km o més
sense núvols per sota de 1500 mi sense presència de cumulonimbus.

METAR: LTCO 201350Z 03014KT CAVOK 32/13 Q1016

Hora: 17:28 (14:28 UTC)

Pronòstic

L'informe es va fer fa 3 hores i 48 minuts, a les 10:40 UTC
Pronòstic vàlid del 20 a les 12 UTC al 20 a les 21 UTC
Vent 12 kt del Est/Nord-Est
Visibilitat 10 km o més
sense núvols per sota de 1500 mi sense presència de cumulonimbus.

TAF: LTCO 201040Z 2012/2021 06012KT CAVOK

Observacions i pronòstics meteorològics de més de 4000 aeroports (METAR i TAF).

Les estacions disponibles són els punts grocs i vermells al mapa.

Posi el ratolí al punt desitjat per veure el nom de l'estació.

Feu clic per veure les observacions i els pronòstics meteorològics.

Per canviar el mapa: feu clic els botons verds amb una creu de color negre per apropar; al botó verd amb un guió per allunyar la imatge; o en les fletxes verdes per a mapes adjacents.


METAR-TAF: